Time;durP1;ratioP1;P1;durP2;ratioP2;P2;SDS_P1;SDS_P2;PMS_P1;PMS_P2;Temp;Humidity;BMP_temperature;BMP_pressure;BME280_temperature;BME280_humidity;BME280_pressure;Samples;Min_cycle;Max_cycle;Signal;HPM_P1;HPM_P2
2021/08/21 05:57:53;;;;;;;11.77;6.32;;;16.20;74.90;;;;;;5683282;23;20470;-83
2021/08/21 06:00:18;;;;;;;10.30;6.32;;;16.20;74.90;;;;;;4930125;29;20087;-84
2021/08/21 06:02:44;;;;;;;11.57;6.55;;;16.30;74.90;;;;;;4949290;29;20379;-80
2021/08/21 06:05:13;;;;;;;10.75;6.53;;;16.40;74.90;;;;;;4943858;29;20091;-83
2021/08/21 06:07:39;;;;;;;10.27;6.25;;;16.50;75.00;;;;;;4941999;29;20039;-87
2021/08/21 06:10:06;;;;;;;10.88;5.90;;;16.50;74.80;;;;;;4940007;29;20393;-82
2021/08/21 06:12:32;;;;;;;11.38;6.60;;;16.60;74.80;;;;;;4921881;29;20039;-84
2021/08/21 06:14:58;;;;;;;10.57;6.25;;;16.70;74.90;;;;;;4941442;29;20020;-88
2021/08/21 06:20:49;;;;;;;12.77;7.43;;;17.00;76.00;;;;;;4939387;29;20030;-87
2021/08/21 06:26:36;;;;;;;10.68;6.22;;;17.60;76.00;;;;;;4940123;29;20535;-91
2021/08/21 06:32:24;;;;;;;10.55;5.90;;;18.00;75.10;;;;;;4950910;29;20050;-89
2021/08/21 06:38:21;;;;;;;10.35;5.82;;;17.90;73.80;;;;;;4951286;29;20055;-86
2021/08/21 06:44:09;;;;;;;10.82;5.55;;;17.70;73.70;;;;;;4939324;29;20117;-85
2021/08/21 06:49:56;;;;;;;10.57;5.93;;;17.70;74.10;;;;;;4938670;29;20034;-85
2021/08/21 06:55:44;;;;;;;11.00;6.25;;;17.80;74.50;;;;;;4938723;29;20040;-82
2021/08/21 07:05:36;;;;;;;10.10;5.72;;;18.00;74.90;;;;;;4938292;29;20054;-85
2021/08/21 07:11:24;;;;;;;9.15;5.57;;;18.40;75.40;;;;;;4938061;29;20071;-86
2021/08/21 07:17:11;;;;;;;8.93;5.10;;;19.00;76.10;;;;;;4938407;29;20111;-87
2021/08/21 07:22:59;;;;;;;10.63;5.13;;;19.80;75.30;;;;;;4938559;29;20047;-87
2021/08/21 07:28:53;;;;;;;10.23;4.85;;;20.20;74.50;;;;;;4938243;29;20042;-86
2021/08/21 07:34:44;;;;;;;8.63;4.35;;;20.60;74.10;;;;;;4937856;29;20030;-85
2021/08/21 07:40:37;;;;;;;8.95;4.35;;;20.90;73.90;;;;;;4937599;29;20090;-84
2021/08/21 07:46:37;;;;;;;8.80;3.88;;;21.60;74.00;;;;;;4937480;29;20099;-84
2021/08/21 07:52:39;;;;;;;10.20;4.68;;;21.80;72.00;;;;;;4937531;29;20110;-84
2021/08/21 07:58:33;;;;;;;8.48;4.05;;;21.80;71.80;;;;;;4937461;29;20035;-84
2021/08/21 08:08:27;;;;;;;10.27;4.50;;;22.20;72.20;;;;;;4937100;29;20124;-85
2021/08/21 08:14:18;;;;;;;7.93;4.13;;;22.90;72.20;;;;;;4937275;29;20439;-82
2021/08/21 08:20:06;;;;;;;8.25;3.67;;;23.30;71.10;;;;;;4937123;29;20030;-82
2021/08/21 08:25:54;;;;;;;8.20;3.85;;;23.60;70.40;;;;;;4936627;29;20202;-83
2021/08/21 08:31:41;;;;;;;8.98;4.13;;;23.90;69.80;;;;;;4936968;29;20034;-83
2021/08/21 08:37:32;;;;;;;9.02;4.07;;;24.10;69.00;;;;;;4936943;29;20030;-82
2021/08/21 08:43:22;;;;;;;9.85;4.75;;;24.50;69.70;;;;;;4936692;29;20119;-82
2021/08/21 08:49:10;;;;;;;8.45;4.20;;;25.10;68.90;;;;;;4936700;29;20058;-84
2021/08/21 08:54:57;;;;;;;21.27;8.95;;;25.40;67.70;;;;;;4936465;29;20498;-83
2021/08/21 09:00:46;;;;;;;12.20;5.35;;;25.60;67.50;;;;;;4936534;29;20047;-83
2021/08/21 09:10:29;;;;;;;7.72;3.50;;;26.40;66.90;;;;;;4939255;29;20101;-84
2021/08/21 09:16:27;;;;;;;7.43;3.50;;;26.90;65.80;;;;;;4936989;29;20091;-82
2021/08/21 09:22:15;;;;;;;7.18;3.35;;;27.20;65.20;;;;;;4936547;29;20049;-84
2021/08/21 09:28:16;;;;;;;6.65;3.20;;;27.60;64.30;;;;;;4936620;29;20463;-84
2021/08/21 09:34:09;;;;;;;5.82;3.00;;;28.00;63.20;;;;;;4937085;29;20026;-85
2021/08/21 09:40:05;;;;;;;6.03;3.05;;;28.40;62.60;;;;;;4936813;29;20078;-87
2021/08/21 09:46:07;;;;;;;6.45;2.92;;;28.90;62.00;;;;;;4936863;29;20078;-84
2021/08/21 09:51:55;;;;;;;5.85;2.72;;;29.50;61.00;;;;;;4936066;29;20058;-84
2021/08/21 09:57:43;;;;;;;7.03;3.00;;;29.60;59.20;;;;;;4939660;29;20035;-82
2021/08/21 10:03:30;;;;;;;5.25;2.60;;;29.90;58.40;;;;;;4939198;29;20046;-83
2021/08/21 10:13:28;;;;;;;4.20;2.45;;;30.00;56.90;;;;;;4939443;29;20043;-83
2021/08/21 10:19:24;;;;;;;5.20;2.40;;;30.40;56.30;;;;;;4939132;29;20515;-83
2021/08/21 10:25:19;;;;;;;4.90;2.42;;;30.90;55.50;;;;;;4939349;29;20086;-83
2021/08/21 10:31:34;;;;;;;3.75;2.30;;;31.20;53.80;;;;;;4938910;29;20031;-84
2021/08/21 10:37:42;;;;;;;5.85;2.60;;;31.60;52.90;;;;;;4938777;29;20059;-83
2021/08/21 10:43:47;;;;;;;6.20;2.60;;;32.30;52.60;;;;;;4938622;29;20083;-82
2021/08/21 10:49:46;;;;;;;5.35;2.50;;;33.00;51.20;;;;;;4938483;29;20126;-81
2021/08/21 10:55:46;;;;;;;4.90;2.35;;;33.60;49.90;;;;;;4938294;29;20042;-83
2021/08/21 11:02:01;;;;;;;7.90;3.20;;;33.80;48.40;;;;;;4938272;29;20060;-83
2021/08/21 11:40:47;;;;;;;5.68;2.60;;;40.10;40.40;;;;;;4916750;29;20500;-83
2021/08/21 11:43:14;;;;;;;4.57;2.70;;;41.00;39.50;;;;;;4911323;29;20044;-82
2021/08/21 11:45:46;;;;;;;4.30;2.40;;;41.30;38.30;;;;;;4901025;29;20032;-83
2021/08/21 11:48:14;;;;;;;4.32;2.35;;;41.40;37.30;;;;;;4901037;29;20038;-82
2021/08/21 11:50:50;;;;;;;4.00;2.28;;;41.30;35.90;;;;;;4917744;29;20032;-81
2021/08/21 11:53:24;;;;;;;5.88;2.53;;;40.60;35.00;;;;;;4932601;29;20032;-83
2021/08/21 11:56:01;;;;;;;4.78;2.70;;;39.90;34.90;;;;;;4900814;29;20039;-82
2021/08/21 11:58:43;;;;;;;4.88;2.65;;;39.10;34.60;;;;;;4917988;29;20032;-81
2021/08/21 12:01:16;;;;;;;4.75;2.53;;;38.40;35.50;;;;;;4901006;29;20040;-81
2021/08/21 12:06:46;;;;;;;4.03;2.40;;;40.00;37.10;;;;;;4917564;29;20039;-85
2021/08/21 12:09:18;;;;;;;3.50;2.30;;;41.10;36.40;;;;;;4930739;29;20295;-85
2021/08/21 12:11:59;;;;;;;4.97;2.50;;;41.70;34.90;;;;;;4900668;29;20477;-85
2021/08/21 12:14:42;;;;;;;3.75;2.30;;;42.10;33.40;;;;;;4899301;29;20127;-85
2021/08/21 12:17:28;;;;;;;3.20;2.10;;;42.30;33.20;;;;;;4930583;29;20122;-83
2021/08/21 12:20:09;;;;;;;4.75;2.45;;;41.50;31.30;;;;;;4886003;29;20036;-84
2021/08/21 12:22:35;;;;;;;4.93;2.40;;;40.80;32.00;;;;;;4932104;29;20107;-84
2021/08/21 12:25:03;;;;;;;3.55;2.38;;;41.30;33.70;;;;;;4931991;29;20078;-84
2021/08/21 12:27:32;;;;;;;4.15;2.15;;;42.20;33.60;;;;;;4931886;29;20531;-85
2021/08/21 12:30:09;;;;;;;2.97;2.30;;;43.20;33.40;;;;;;4900565;29;20020;-84
2021/08/21 12:32:38;;;;;;;4.22;2.50;;;44.10;32.60;;;;;;4900453;29;20392;-84
2021/08/21 12:35:17;;;;;;;5.90;2.75;;;44.90;32.10;;;;;;4899388;29;20028;-84
2021/08/21 12:37:45;;;;;;;4.65;2.50;;;45.60;31.90;;;;;;4890670;29;20075;-84
2021/08/21 12:40:19;;;;;;;5.15;2.30;;;46.40;31.20;;;;;;4880534;29;20099;-83
2021/08/21 12:42:45;;;;;;;3.97;2.50;;;47.00;30.40;;;;;;4880820;29;20021;-82
2021/08/21 12:45:25;;;;;;;3.75;2.40;;;47.40;29.60;;;;;;4883923;29;20449;-85
2021/08/21 12:47:51;;;;;;;4.35;2.20;;;47.80;29.40;;;;;;4879895;29;20033;-85
2021/08/21 12:50:22;;;;;;;3.63;2.20;;;47.40;27.80;;;;;;4880177;29;20025;-84
2021/08/21 12:53:04;;;;;;;4.78;2.70;;;46.00;27.50;;;;;;4880389;29;20187;-84
2021/08/21 12:55:41;;;;;;;4.05;2.30;;;46.00;29.40;;;;;;4879803;29;20033;-84
2021/08/21 12:58:08;;;;;;;3.55;2.30;;;46.50;28.60;;;;;;4880195;29;20029;-84
2021/08/21 13:00:39;;;;;;;3.92;2.30;;;46.80;28.50;;;;;;4880564;29;20030;-84
2021/08/21 13:03:24;;;;;;;3.42;2.10;;;47.40;28.60;;;;;;4879109;29;20025;-85
2021/08/21 13:05:58;;;;;;;4.15;2.30;;;48.00;27.70;;;;;;4878125;29;20423;-85
2021/08/21 13:08:42;;;;;;;3.55;2.20;;;47.40;27.10;;;;;;4879509;29;20037;-84
2021/08/21 13:11:10;;;;;;;4.55;2.55;;;47.20;27.60;;;;;;4863043;29;20381;-84
2021/08/21 13:13:46;;;;;;;5.03;2.30;;;47.70;27.20;;;;;;4879123;29;20098;-84
2021/08/21 13:16:16;;;;;;;5.18;2.50;;;47.10;25.60;;;;;;4877498;29;20033;-83
2021/08/21 13:18:42;;;;;;;4.43;2.35;;;45.90;26.30;;;;;;4862666;29;20080;-84
2021/08/21 13:21:08;;;;;;;5.88;2.63;;;46.40;27.60;;;;;;4879285;29;20017;-84
2021/08/21 13:23:44;;;;;;;3.95;2.58;;;47.50;27.80;;;;;;4878218;29;20036;-84
2021/08/21 13:26:13;;;;;;;3.30;2.20;;;48.70;27.50;;;;;;4863626;29;20441;-84
2021/08/21 13:28:40;;;;;;;3.58;2.30;;;49.90;27.50;;;;;;4878167;29;20500;-85
2021/08/21 13:31:05;;;;;;;3.97;2.50;;;50.90;27.10;;;;;;4865430;29;20044;-85
2021/08/21 13:33:34;;;;;;;3.95;2.42;;;51.80;26.50;;;;;;4881627;29;20161;-85
2021/08/21 13:36:06;;;;;;;4.00;2.50;;;52.30;25.90;;;;;;4881292;29;20026;-86
2021/08/21 13:38:32;;;;;;;;;;;52.20;25.40;;;;;;4893805;29;20508;-85
2021/08/21 13:40:57;;;;;;;3.63;2.40;;;52.70;25.80;;;;;;4900018;29;19934;-85
2021/08/21 13:43:23;;;;;;;3.28;2.50;;;53.20;25.00;;;;;;4900312;29;20024;-85
2021/08/21 13:45:51;;;;;;;3.95;2.50;;;53.50;25.00;;;;;;4900258;29;20032;-85
2021/08/21 13:48:17;;;;;;;5.57;2.38;;;53.30;23.60;;;;;;4884569;29;20051;-85
2021/08/21 13:50:50;;;;;;;4.05;2.50;;;52.70;23.80;;;;;;4900070;29;20029;-85
2021/08/21 13:53:16;;;;;;;3.58;2.70;;;52.90;25.10;;;;;;4899813;29;20084;-85
2021/08/21 13:55:44;;;;;;;3.00;2.67;;;53.70;24.70;;;;;;4900173;29;20036;-85
2021/08/21 13:58:10;;;;;;;4.55;3.10;;;54.20;24.50;;;;;;4900047;29;20107;-85
2021/08/21 14:00:39;;;;;;;3.85;2.95;;;54.70;24.00;;;;;;4884366;29;20039;-86
2021/08/21 14:03:05;;;;;;;3.95;2.88;;;54.80;23.20;;;;;;4901301;29;20024;-85
2021/08/21 14:05:31;;;;;;;3.53;2.85;;;55.00;23.30;;;;;;4900260;29;20369;-85
2021/08/21 14:07:59;;;;;;;3.38;2.50;;;54.90;22.70;;;;;;4900292;29;20060;-85
2021/08/21 14:10:25;;;;;;;4.63;3.20;;;54.20;23.00;;;;;;4899811;29;20021;-84
2021/08/21 14:12:50;;;;;;;7.85;4.40;;;54.50;23.00;;;;;;4901002;29;20077;-84
2021/08/21 14:15:22;;;;;;;4.93;2.97;;;54.30;22.30;;;;;;4899800;29;20035;-84
2021/08/21 14:17:48;;;;;;;4.38;2.80;;;53.40;22.40;;;;;;4901829;29;20040;-84
2021/08/21 14:20:13;;;;;;;6.55;4.68;;;53.50;23.20;;;;;;4900968;29;20429;-84
2021/08/21 14:22:39;;;;;;;3.95;2.90;;;54.00;23.20;;;;;;4901088;29;20036;-85
2021/08/21 14:25:08;;;;;;;4.50;3.17;;;54.40;23.00;;;;;;4900208;29;20119;-85
2021/08/21 14:27:35;;;;;;;3.95;3.10;;;54.80;22.90;;;;;;4884570;29;20051;-84
2021/08/21 14:30:01;;;;;;;5.10;3.35;;;55.40;23.00;;;;;;4899669;29;20025;-85
2021/08/21 14:32:29;;;;;;;5.18;3.30;;;55.70;22.30;;;;;;4884006;29;20044;-85
2021/08/21 14:35:03;;;;;;;5.40;3.50;;;55.50;21.90;;;;;;4899714;29;20036;-85
2021/08/21 14:37:29;;;;;;;4.47;3.30;;;55.20;21.90;;;;;;4873832;29;20033;-85
2021/08/21 14:39:54;;;;;;;3.90;3.05;;;55.20;22.00;;;;;;4902084;29;20038;-85
2021/08/21 14:42:20;;;;;;;5.32;3.20;;;55.00;21.90;;;;;;4919036;29;20028;-85
2021/08/21 14:44:46;;;;;;;5.00;3.17;;;55.00;22.20;;;;;;4889990;29;89054;-84
2021/08/21 14:47:18;;;;;;;5.47;2.85;;;55.20;22.10;;;;;;4902266;29;20032;-85
2021/08/21 14:49:45;;;;;;;4.05;2.70;;;55.20;22.00;;;;;;4848842;29;20424;-84
2021/08/21 14:52:11;;;;;;;4.55;2.85;;;55.10;21.80;;;;;;4866072;29;20033;-84
2021/08/21 14:54:40;;;;;;;3.78;2.60;;;54.80;21.70;;;;;;4881475;29;20062;-85
2021/08/21 14:57:19;;;;;;;3.13;2.40;;;54.60;21.60;;;;;;4849668;29;20129;-85
2021/08/21 14:59:45;;;;;;;4.75;2.80;;;54.30;21.40;;;;;;4851019;29;20037;-85
2021/08/21 15:02:10;;;;;;;4.32;2.70;;;53.90;21.60;;;;;;4864510;29;20081;-85
2021/08/21 15:04:36;;;;;;;3.72;2.42;;;53.60;21.50;;;;;;4864896;29;20089;-85
2021/08/21 15:07:02;;;;;;;3.00;2.35;;;53.20;21.50;;;;;;4864784;29;20132;-85
2021/08/21 15:09:35;;;;;;;3.63;2.38;;;52.90;21.70;;;;;;4864731;29;20056;-84
2021/08/21 15:12:05;;;;;;;5.65;2.50;;;52.30;21.20;;;;;;4864448;29;20132;-86
2021/08/21 15:14:31;;;;;;;4.68;2.80;;;51.90;21.60;;;;;;4864847;29;20025;-84
2021/08/21 15:16:57;;;;;;;2.90;2.35;;;51.70;22.00;;;;;;4864704;29;20033;-85
2021/08/21 15:19:27;;;;;;;4.57;2.92;;;51.70;22.30;;;;;;4865046;29;20064;-84
2021/08/21 15:21:52;;;;;;;6.97;2.72;;;51.80;22.20;;;;;;4864662;29;20033;-85
2021/08/21 15:24:21;;;;;;;3.03;2.20;;;51.50;21.60;;;;;;4864687;29;20033;-84
2021/08/21 15:26:53;;;;;;;6.57;3.85;;;50.10;21.60;;;;;;4864393;29;20082;-84
2021/08/21 15:29:21;;;;;;;9.80;6.37;;;49.30;22.40;;;;;;4864448;29;20033;-84
2021/08/21 15:31:53;;;;;;;12.40;10.15;;;49.20;22.70;;;;;;4864360;29;20037;-84
2021/08/21 15:34:19;;;;;;;5.18;3.10;;;49.30;23.00;;;;;;4864391;29;20026;-85
2021/08/21 15:36:45;;;;;;;7.15;3.30;;;49.60;23.20;;;;;;4864141;29;20040;-85
2021/08/21 15:39:10;;;;;;;7.95;3.70;;;50.00;23.00;;;;;;4864377;29;20092;-84
2021/08/21 15:41:37;;;;;;;5.70;2.80;;;50.10;23.00;;;;;;4866668;29;20040;-84
2021/08/21 15:44:04;;;;;;;5.22;2.50;;;50.10;22.90;;;;;;4876910;29;20036;-84
2021/08/21 15:46:30;;;;;;;13.88;6.65;;;50.10;22.80;;;;;;4883432;29;20177;-84
2021/08/21 15:48:58;;;;;;;6.00;2.88;;;50.10;22.80;;;;;;4867842;29;20053;-84
2021/08/21 15:51:27;;;;;;;5.07;2.60;;;50.00;22.80;;;;;;4883197;29;20059;-84
2021/08/21 15:53:54;;;;;;;5.45;2.55;;;50.00;22.90;;;;;;4881698;29;20021;-84
2021/08/21 15:56:19;;;;;;;6.70;2.53;;;49.80;22.80;;;;;;4899610;29;20028;-84
2021/08/21 15:58:45;;;;;;;3.55;2.30;;;49.50;22.80;;;;;;4882605;29;20485;-84
2021/08/21 16:01:14;;;;;;;4.57;2.50;;;49.40;23.00;;;;;;4882270;29;20029;-84
2021/08/21 16:03:40;;;;;;;4.25;2.47;;;49.30;23.00;;;;;;4882141;29;20043;-84
2021/08/21 16:06:07;;;;;;;4.00;2.45;;;49.10;22.70;;;;;;4881917;29;20037;-80
2021/08/21 16:08:33;;;;;;;4.55;2.45;;;48.80;23.00;;;;;;4899174;29;20028;-83
2021/08/21 16:10:59;;;;;;;4.57;2.47;;;48.70;23.10;;;;;;4898943;29;20024;-83
2021/08/21 16:13:25;;;;;;;4.43;2.53;;;48.60;23.10;;;;;;4899086;29;20036;-83
2021/08/21 16:15:53;;;;;;;5.68;2.60;;;48.60;23.10;;;;;;4882190;29;20032;-84
2021/08/21 16:18:22;;;;;;;3.70;2.40;;;48.40;23.10;;;;;;4882198;29;20037;-83
2021/08/21 16:20:48;;;;;;;4.50;2.60;;;48.20;23.10;;;;;;4898463;29;20055;-83
2021/08/21 16:23:16;;;;;;;4.40;2.50;;;47.90;23.20;;;;;;4868145;29;20454;-84
2021/08/21 16:25:48;;;;;;;5.15;2.50;;;47.70;23.20;;;;;;4878076;29;20040;-83
2021/08/21 16:28:15;;;;;;;4.72;2.30;;;47.20;23.20;;;;;;4897247;29;20055;-84
2021/08/21 16:30:41;;;;;;;5.22;2.40;;;46.70;23.30;;;;;;4892845;29;20088;-83
2021/08/21 16:33:18;;;;;;;4.28;2.30;;;46.30;23.40;;;;;;4885155;29;20086;-83
2021/08/21 16:35:44;;;;;;;4.45;2.60;;;46.00;23.60;;;;;;4881768;29;20035;-85
2021/08/21 16:38:18;;;;;;;4.63;2.45;;;45.80;23.80;;;;;;4898089;29;20131;-84
2021/08/21 16:41:18;;;;;;;4.35;2.63;;;45.70;23.80;;;;;;4897057;29;20041;-84
2021/08/21 16:44:10;;;;;;;5.05;2.70;;;45.30;23.80;;;;;;4874592;29;20028;-83
2021/08/21 16:46:39;;;;;;;6.35;3.42;;;44.90;24.00;;;;;;4836709;29;20489;-83
2021/08/21 16:49:34;;;;;;;6.78;2.65;;;44.50;23.90;;;;;;4896973;29;20036;-83
2021/08/21 16:52:21;;;;;;;5.07;2.78;;;44.20;24.20;;;;;;4892083;29;20040;-83
2021/08/21 16:54:52;;;;;;;5.55;2.70;;;43.90;24.40;;;;;;4865379;29;20190;-83
2021/08/21 16:57:23;;;;;;;5.55;2.47;;;43.50;24.20;;;;;;4913495;29;20537;-83
2021/08/21 16:59:59;;;;;;;4.32;2.47;;;43.20;24.20;;;;;;4914194;29;20088;-84
2021/08/21 17:02:24;;;;;;;5.00;2.70;;;42.70;24.30;;;;;;4919385;29;20029;-83
2021/08/21 17:04:53;;;;;;;7.95;2.70;;;42.20;24.60;;;;;;4918383;29;20122;-83
2021/08/21 17:07:19;;;;;;;8.60;2.70;;;41.90;24.90;;;;;;4919930;29;20052;-83
2021/08/21 17:09:53;;;;;;;4.32;2.35;;;41.70;25.10;;;;;;4921079;29;20036;-83
2021/08/21 17:12:30;;;;;;;3.55;2.25;;;41.40;25.20;;;;;;4906630;29;20063;-83
2021/08/21 17:14:57;;;;;;;5.32;2.45;;;41.20;25.40;;;;;;4920303;29;20031;-82
2021/08/21 17:17:44;;;;;;;;;;;;;;;;;;;;;
2021/08/21 17:20:27;;;;;;;4.47;2.50;;;40.50;25.50;;;;;;4890875;29;20400;-83
2021/08/21 17:22:59;;;;;;;4.93;2.63;;;40.00;25.60;;;;;;4921053;29;20025;-83
2021/08/21 17:25:38;;;;;;;4.82;2.70;;;39.60;26.00;;;;;;4863021;29;20037;-82
2021/08/21 17:28:20;;;;;;;;;;;;;;;;;;;;;
2021/08/21 17:30:51;;;;;;;7.35;2.75;;;38.70;26.00;;;;;;4888968;29;20036;-83
2021/08/21 17:33:26;;;;;;;3.97;2.58;;;38.00;26.20;;;;;;4917441;29;20029;-83
2021/08/21 17:36:27;;;;;;;5.20;2.55;;;37.50;26.60;;;;;;4868417;29;20041;-84
2021/08/21 17:39:00;;;;;;;5.40;2.80;;;36.90;26.70;;;;;;4880313;29;20063;-82
2021/08/21 17:41:29;;;;;;;5.35;2.70;;;36.20;27.10;;;;;;4849380;29;20033;-84
2021/08/21 17:43:54;;;;;;;9.57;3.22;;;35.70;27.30;;;;;;4895217;29;20128;-82
2021/08/21 17:46:32;;;;;;;8.77;3.10;;;35.30;27.60;;;;;;4895701;29;20101;-83
2021/08/21 17:49:04;;;;;;;5.22;2.70;;;34.90;28.00;;;;;;4896070;29;20044;-83
2021/08/21 17:51:30;;;;;;;6.60;3.28;;;34.40;28.40;;;;;;4898685;29;20025;-83
2021/08/21 17:54:17;;;;;;;7.47;3.70;;;34.00;28.70;;;;;;4866839;29;20125;-83
2021/08/21 17:56:44;;;;;;;8.45;4.22;;;33.60;29.20;;;;;;4851841;29;20042;-82
2021/08/21 17:59:10;;;;;;;10.43;5.00;;;33.10;29.70;;;;;;4865143;29;20026;-82
2021/08/21 18:01:51;;;;;;;10.13;4.70;;;32.80;30.00;;;;;;4851343;29;20086;-82
2021/08/21 18:04:28;;;;;;;8.15;3.72;;;32.40;30.80;;;;;;4866994;29;20029;-82
2021/08/21 18:06:57;;;;;;;8.13;3.90;;;32.00;31.30;;;;;;4848987;29;20046;-82
2021/08/21 18:09:24;;;;;;;6.55;3.35;;;31.70;31.70;;;;;;4864287;29;20025;-83
2021/08/21 18:11:50;;;;;;;6.60;3.30;;;31.40;32.20;;;;;;4864996;29;20036;-82
2021/08/21 18:14:16;;;;;;;7.78;3.13;;;31.10;32.70;;;;;;4864606;29;20030;-83
2021/08/21 18:16:44;;;;;;;6.75;3.10;;;30.80;33.30;;;;;;4894048;29;20098;-85
2021/08/21 18:19:13;;;;;;;8.48;3.33;;;30.50;33.60;;;;;;4865639;29;20045;-83
2021/08/21 18:21:39;;;;;;;8.60;3.40;;;30.30;34.00;;;;;;4863917;29;20041;-84
2021/08/21 18:24:08;;;;;;;6.95;3.30;;;30.00;34.50;;;;;;4905419;29;20032;-83
2021/08/21 18:26:36;;;;;;;8.32;3.20;;;29.70;35.00;;;;;;4874584;29;20120;-85
2021/08/21 18:29:02;;;;;;;7.85;3.50;;;29.40;35.60;;;;;;4864872;29;20037;-85
2021/08/21 18:31:31;;;;;;;9.02;3.70;;;29.20;36.10;;;;;;4895287;29;20029;-86
2021/08/21 18:33:57;;;;;;;10.60;5.55;;;29.00;36.50;;;;;;4848107;29;20036;-84
2021/08/21 18:36:25;;;;;;;13.00;8.10;;;28.80;36.80;;;;;;4854972;29;20021;-85
2021/08/21 18:38:51;;;;;;;7.30;3.72;;;28.50;37.10;;;;;;4881597;29;20055;-82
2021/08/21 18:41:21;;;;;;;6.97;3.53;;;28.30;37.50;;;;;;4881197;29;20088;-86
2021/08/21 18:43:47;;;;;;;7.00;3.28;;;28.20;38.00;;;;;;4867357;29;20094;-86
2021/08/21 18:46:13;;;;;;;8.68;3.58;;;27.90;38.20;;;;;;4884494;29;20037;-86
2021/08/21 18:48:41;;;;;;;7.05;3.40;;;27.60;38.60;;;;;;4887863;29;20048;-86
2021/08/21 18:51:08;;;;;;;8.88;3.90;;;27.50;39.20;;;;;;4885226;29;20033;-87
2021/08/21 18:53:37;;;;;;;9.07;3.70;;;27.30;39.70;;;;;;4887261;29;20025;-85
2021/08/21 18:56:05;;;;;;;8.32;3.67;;;27.00;40.00;;;;;;4888334;29;20037;-85
2021/08/21 18:58:42;;;;;;;7.63;3.75;;;26.90;40.50;;;;;;4883881;29;20036;-85
2021/08/21 19:01:10;;;;;;;7.85;3.65;;;26.70;40.70;;;;;;4872209;29;20041;-87
2021/08/21 19:03:42;;;;;;;7.22;3.60;;;26.50;41.00;;;;;;4866667;29;20044;-86
2021/08/21 19:06:10;;;;;;;7.30;3.65;;;26.40;41.50;;;;;;4870032;29;20037;-90
2021/08/21 19:08:52;;;;;;;7.75;3.53;;;26.20;41.90;;;;;;4869184;29;20128;-86
2021/08/21 19:11:18;;;;;;;9.65;4.00;;;26.10;42.60;;;;;;4869714;29;20026;-87
2021/08/21 19:16:13;;;;;;;8.38;3.65;;;25.80;42.80;;;;;;5000821;23;20053;-87
2021/08/21 19:18:39;;;;;;;8.00;3.97;;;25.70;43.20;;;;;;4887133;29;20081;-84
2021/08/21 19:21:05;;;;;;;7.32;3.65;;;25.60;43.60;;;;;;4917467;29;20024;-84
2021/08/21 19:23:37;;;;;;;7.60;4.07;;;25.50;44.00;;;;;;4917706;29;20032;-85
2021/08/21 19:26:04;;;;;;;7.88;3.60;;;25.40;44.30;;;;;;4915587;29;20128;-85
2021/08/21 19:28:30;;;;;;;8.45;4.28;;;25.20;44.40;;;;;;4902305;29;20031;-84
2021/08/21 19:30:57;;;;;;;10.18;4.55;;;25.10;44.80;;;;;;4886572;29;20056;-85
2021/08/21 19:33:24;;;;;;;10.07;4.85;;;25.00;45.10;;;;;;4918545;29;20060;-85
2021/08/21 19:35:54;;;;;;;8.23;4.60;;;24.80;45.40;;;;;;4918474;29;20590;-85
2021/08/21 19:38:20;;;;;;;12.65;4.78;;;24.70;45.90;;;;;;4902588;29;20031;-85
2021/08/21 19:40:48;;;;;;;8.82;4.20;;;24.60;46.10;;;;;;4902543;29;20025;-85
2021/08/21 19:43:16;;;;;;;8.93;4.80;;;24.50;46.30;;;;;;4870806;29;20119;-85
2021/08/21 19:45:44;;;;;;;9.93;5.43;;;24.40;46.70;;;;;;4905135;29;20100;-86
2021/08/21 19:48:10;;;;;;;9.65;5.22;;;24.30;47.10;;;;;;4908567;29;20029;-83
2021/08/21 19:50:39;;;;;;;9.57;4.85;;;24.20;47.40;;;;;;4903272;29;20027;-86
2021/08/21 19:53:05;;;;;;;10.05;5.40;;;24.10;47.60;;;;;;4902082;29;20033;-86
2021/08/21 19:55:31;;;;;;;9.13;5.32;;;24.00;48.50;;;;;;4886416;29;20032;-85
2021/08/21 19:58:02;;;;;;;9.50;5.30;;;23.90;48.20;;;;;;4885766;29;20035;-86
2021/08/21 20:00:30;;;;;;;9.10;4.78;;;23.80;48.60;;;;;;4902175;29;20024;-85
2021/08/21 20:03:02;;;;;;;10.18;4.93;;;23.70;48.70;;;;;;4901480;29;20354;-84
2021/08/21 20:05:31;;;;;;;9.23;4.97;;;23.60;49.10;;;;;;4888145;29;20037;-84
2021/08/21 20:07:59;;;;;;;11.15;5.60;;;23.50;49.40;;;;;;4903797;29;20052;-85
2021/08/21 20:10:25;;;;;;;9.68;5.30;;;23.40;49.70;;;;;;4902363;29;20025;-84
2021/08/21 20:12:54;;;;;;;9.30;4.72;;;23.40;50.00;;;;;;4901015;29;20039;-85
2021/08/21 20:15:20;;;;;;;9.32;4.95;;;23.40;50.30;;;;;;4899889;29;20059;-85
2021/08/21 20:17:46;;;;;;;11.70;5.68;;;23.20;50.60;;;;;;4899455;29;20108;-85
2021/08/21 20:20:24;;;;;;;10.63;5.40;;;23.20;50.80;;;;;;4899400;29;20040;-85
2021/08/21 20:22:52;;;;;;;10.02;5.03;;;23.10;51.20;;;;;;4899734;29;20393;-85
2021/08/21 20:25:19;;;;;;;9.00;4.85;;;23.10;51.40;;;;;;4899631;29;20099;-85
2021/08/21 20:27:45;;;;;;;10.32;5.30;;;23.10;51.60;;;;;;4900690;29;20103;-85
2021/08/21 20:30:11;;;;;;;11.45;5.78;;;23.00;51.70;;;;;;4900050;29;20029;-88
2021/08/21 20:32:39;;;;;;;9.40;5.65;;;22.90;51.90;;;;;;4903478;29;20033;-86
2021/08/21 20:35:06;;;;;;;10.60;5.45;;;22.90;52.20;;;;;;4900243;29;20024;-86
2021/08/21 20:37:32;;;;;;;11.40;5.43;;;22.70;52.30;;;;;;4900576;29;20025;-87
2021/08/21 20:39:58;;;;;;;9.63;5.25;;;22.70;52.60;;;;;;4898726;29;20047;-86
2021/08/21 20:42:23;;;;;;;9.00;5.13;;;22.60;52.80;;;;;;4899422;29;20056;-86
2021/08/21 20:44:50;;;;;;;10.57;5.57;;;22.50;53.60;;;;;;4899845;29;20020;-87
2021/08/21 20:47:27;;;;;;;10.43;5.80;;;22.50;53.40;;;;;;4900041;29;20032;-86
2021/08/21 20:49:54;;;;;;;10.70;5.35;;;22.40;54.20;;;;;;4900896;29;20120;-87
2021/08/21 20:52:33;;;;;;;9.00;4.80;;;22.40;53.90;;;;;;4899763;29;20067;-86
2021/08/21 20:55:17;;;;;;;10.60;5.10;;;22.30;54.20;;;;;;4885301;29;20392;-87
2021/08/21 20:57:45;;;;;;;10.25;5.10;;;22.30;54.50;;;;;;4899028;29;20039;-86
2021/08/21 21:00:11;;;;;;;10.65;5.32;;;22.20;54.60;;;;;;4883515;29;20036;-86
2021/08/21 21:02:37;;;;;;;10.32;5.47;;;22.20;54.70;;;;;;4897146;29;20412;-86
2021/08/21 21:05:06;;;;;;;10.07;5.45;;;22.20;54.90;;;;;;4898452;29;20053;-85
2021/08/21 21:07:32;;;;;;;9.13;5.07;;;22.10;55.00;;;;;;4911161;29;20071;-85
2021/08/21 21:09:57;;;;;;;11.25;5.50;;;22.00;55.10;;;;;;4919748;29;20029;-79
2021/08/21 21:12:26;;;;;;;8.90;4.63;;;22.00;55.50;;;;;;4901907;29;20033;-84
2021/08/21 21:14:51;;;;;;;9.70;5.10;;;22.00;55.70;;;;;;4897547;29;20052;-84
2021/08/21 21:17:17;;;;;;;9.35;5.30;;;21.80;55.90;;;;;;4897572;29;20064;-84
